sensor_id;sensor_type;location;lat;lon;timestamp;temperature;humidity
7720;DHT22;3902;49.474;8.616;2022-08-19T00:00:36;23.90;99.90
7720;DHT22;3902;49.474;8.616;2022-08-19T00:03:03;23.90;99.90
7720;DHT22;3902;49.474;8.616;2022-08-19T00:05:30;23.90;99.90
7720;DHT22;3902;49.474;8.616;2022-08-19T00:07:56;23.90;99.90
7720;DHT22;3902;49.474;8.616;2022-08-19T00:10:22;23.90;99.90
7720;DHT22;3902;49.474;8.616;2022-08-19T00:12:49;23.90;99.90
7720;DHT22;3902;49.474;8.616;2022-08-19T00:15:17;23.80;99.90
7720;DHT22;3902;49.474;8.616;2022-08-19T00:17:44;23.80;99.90
7720;DHT22;3902;49.474;8.616;2022-08-19T00:20:12;23.80;99.90
7720;DHT22;3902;49.474;8.616;2022-08-19T00:22:38;23.80;99.90
7720;DHT22;3902;49.474;8.616;2022-08-19T00:25:07;23.80;99.90
7720;DHT22;3902;49.474;8.616;2022-08-19T00:27:33;23.80;99.90
7720;DHT22;3902;49.474;8.616;2022-08-19T00:29:59;23.80;99.90
7720;DHT22;3902;49.474;8.616;2022-08-19T00:32:25;23.80;99.90
7720;DHT22;3902;49.474;8.616;2022-08-19T00:34:52;23.80;99.90
7720;DHT22;3902;49.474;8.616;2022-08-19T00:37:19;23.70;99.90
7720;DHT22;3902;49.474;8.616;2022-08-19T00:39:45;23.70;99.90
7720;DHT22;3902;49.474;8.616;2022-08-19T00:42:10;23.60;99.90
7720;DHT22;3902;49.474;8.616;2022-08-19T00:44:36;23.60;99.90
7720;DHT22;3902;49.474;8.616;2022-08-19T00:47:01;23.60;99.90
7720;DHT22;3902;49.474;8.616;2022-08-19T00:49:40;23.60;99.90
7720;DHT22;3902;49.474;8.616;2022-08-19T00:52:15;23.60;99.90
7720;DHT22;3902;49.474;8.616;2022-08-19T00:54:42;23.60;99.90
7720;DHT22;3902;49.474;8.616;2022-08-19T00:57:11;23.50;99.90
7720;DHT22;3902;49.474;8.616;2022-08-19T00:59:40;23.50;99.90
7720;DHT22;3902;49.474;8.616;2022-08-19T01:02:07;23.50;99.90
7720;DHT22;3902;49.474;8.616;2022-08-19T01:04:32;23.50;99.90
7720;DHT22;3902;49.474;8.616;2022-08-19T01:06:58;23.60;99.90
7720;DHT22;3902;49.474;8.616;2022-08-19T01:09:24;23.60;99.90
7720;DHT22;3902;49.474;8.616;2022-08-19T01:11:50;23.60;99.90
7720;DHT22;3902;49.474;8.616;2022-08-19T01:14:17;23.60;99.90
7720;DHT22;3902;49.474;8.616;2022-08-19T01:16:43;23.60;99.90
7720;DHT22;3902;49.474;8.616;2022-08-19T01:19:26;23.50;99.90
7720;DHT22;3902;49.474;8.616;2022-08-19T01:22:03;23.50;99.90
7720;DHT22;3902;49.474;8.616;2022-08-19T01:24:31;23.50;99.90
7720;DHT22;3902;49.474;8.616;2022-08-19T01:26:57;23.50;99.90
7720;DHT22;3902;49.474;8.616;2022-08-19T01:29:22;23.50;99.90
7720;DHT22;3902;49.474;8.616;2022-08-19T01:31:48;23.50;99.90
7720;DHT22;3902;49.474;8.616;2022-08-19T01:34:14;23.50;99.90
7720;DHT22;3902;49.474;8.616;2022-08-19T01:36:44;23.50;99.90
7720;DHT22;3902;49.474;8.616;2022-08-19T01:39:17;23.50;99.90
7720;DHT22;3902;49.474;8.616;2022-08-19T01:41:43;23.50;99.90
7720;DHT22;3902;49.474;8.616;2022-08-19T01:44:09;23.50;99.90
7720;DHT22;3902;49.474;8.616;2022-08-19T01:46:36;23.50;99.90
7720;DHT22;3902;49.474;8.616;2022-08-19T01:49:03;23.50;99.90
7720;DHT22;3902;49.474;8.616;2022-08-19T01:51:29;23.50;99.90
7720;DHT22;3902;49.474;8.616;2022-08-19T01:53:56;23.50;99.90
7720;DHT22;3902;49.474;8.616;2022-08-19T01:56:22;23.50;99.90
7720;DHT22;3902;49.474;8.616;2022-08-19T01:59:12;23.50;99.90
7720;DHT22;3902;49.474;8.616;2022-08-19T02:01:40;23.50;99.90
7720;DHT22;3902;49.474;8.616;2022-08-19T02:04:05;23.50;99.90
7720;DHT22;3902;49.474;8.616;2022-08-19T02:06:31;23.50;99.90
7720;DHT22;3902;49.474;8.616;2022-08-19T02:08:57;23.40;99.90
7720;DHT22;3902;49.474;8.616;2022-08-19T02:11:34;23.40;99.90
7720;DHT22;3902;49.474;8.616;2022-08-19T02:14:03;23.40;99.90
7720;DHT22;3902;49.474;8.616;2022-08-19T02:16:29;23.40;99.90
7720;DHT22;3902;49.474;8.616;2022-08-19T02:18:55;23.40;99.90
7720;DHT22;3902;49.474;8.616;2022-08-19T02:21:22;23.40;99.90
7720;DHT22;3902;49.474;8.616;2022-08-19T02:23:49;23.40;99.90
7720;DHT22;3902;49.474;8.616;2022-08-19T02:26:15;23.40;99.90
7720;DHT22;3902;49.474;8.616;2022-08-19T02:28:41;23.40;99.90
7720;DHT22;3902;49.474;8.616;2022-08-19T02:31:16;23.40;99.90
7720;DHT22;3902;49.474;8.616;2022-08-19T02:33:42;23.30;99.90
7720;DHT22;3902;49.474;8.616;2022-08-19T02:36:10;23.30;99.90
7720;DHT22;3902;49.474;8.616;2022-08-19T02:38:36;23.30;99.90
7720;DHT22;3902;49.474;8.616;2022-08-19T02:41:09;23.30;99.90
7720;DHT22;3902;49.474;8.616;2022-08-19T02:43:36;23.30;99.90
7720;DHT22;3902;49.474;8.616;2022-08-19T02:46:11;23.30;99.90
7720;DHT22;3902;49.474;8.616;2022-08-19T02:48:37;23.30;99.90
7720;DHT22;3902;49.474;8.616;2022-08-19T02:51:02;23.30;99.90
7720;DHT22;3902;49.474;8.616;2022-08-19T02:53:28;23.30;99.90
7720;DHT22;3902;49.474;8.616;2022-08-19T02:55:54;23.30;99.90
7720;DHT22;3902;49.474;8.616;2022-08-19T02:58:21;23.30;99.90
7720;DHT22;3902;49.474;8.616;2022-08-19T03:00:55;23.20;99.90
7720;DHT22;3902;49.474;8.616;2022-08-19T03:03:21;23.20;99.90
7720;DHT22;3902;49.474;8.616;2022-08-19T03:05:46;23.20;99.90
7720;DHT22;3902;49.474;8.616;2022-08-19T03:08:12;23.20;99.90
7720;DHT22;3902;49.474;8.616;2022-08-19T03:10:46;23.20;99.90
7720;DHT22;3902;49.474;8.616;2022-08-19T03:13:14;23.10;99.90
7720;DHT22;3902;49.474;8.616;2022-08-19T03:15:43;23.10;99.90
7720;DHT22;3902;49.474;8.616;2022-08-19T03:18:08;23.10;99.90
7720;DHT22;3902;49.474;8.616;2022-08-19T03:20:47;23.10;99.90
7720;DHT22;3902;49.474;8.616;2022-08-19T03:23:14;23.10;99.90
7720;DHT22;3902;49.474;8.616;2022-08-19T03:25:43;23.10;99.90
7720;DHT22;3902;49.474;8.616;2022-08-19T03:28:10;23.10;99.90
7720;DHT22;3902;49.474;8.616;2022-08-19T03:30:37;23.10;99.90
7720;DHT22;3902;49.474;8.616;2022-08-19T03:33:05;23.10;99.90
7720;DHT22;3902;49.474;8.616;2022-08-19T03:35:30;23.00;99.90
7720;DHT22;3902;49.474;8.616;2022-08-19T03:37:58;23.00;99.90
7720;DHT22;3902;49.474;8.616;2022-08-19T03:40:23;23.00;99.90
7720;DHT22;3902;49.474;8.616;2022-08-19T03:42:49;23.00;99.90
7720;DHT22;3902;49.474;8.616;2022-08-19T03:45:15;22.90;99.90
7720;DHT22;3902;49.474;8.616;2022-08-19T03:47:40;22.90;99.90
7720;DHT22;3902;49.474;8.616;2022-08-19T03:50:06;22.90;99.90
7720;DHT22;3902;49.474;8.616;2022-08-19T03:52:33;22.90;99.90
7720;DHT22;3902;49.474;8.616;2022-08-19T03:54:59;22.80;99.90
7720;DHT22;3902;49.474;8.616;2022-08-19T03:57:25;22.90;99.90
7720;DHT22;3902;49.474;8.616;2022-08-19T03:59:50;22.80;99.90
7720;DHT22;3902;49.474;8.616;2022-08-19T04:02:16;22.80;99.90
7720;DHT22;3902;49.474;8.616;2022-08-19T04:04:43;22.80;99.90
7720;DHT22;3902;49.474;8.616;2022-08-19T04:07:09;22.80;99.90
7720;DHT22;3902;49.474;8.616;2022-08-19T04:09:36;22.80;99.90
7720;DHT22;3902;49.474;8.616;2022-08-19T04:12:02;22.80;99.90
7720;DHT22;3902;49.474;8.616;2022-08-19T04:14:30;22.80;99.90
7720;DHT22;3902;49.474;8.616;2022-08-19T04:16:57;22.80;99.90
7720;DHT22;3902;49.474;8.616;2022-08-19T04:19:24;22.80;99.90
7720;DHT22;3902;49.474;8.616;2022-08-19T04:21:52;22.80;99.90
7720;DHT22;3902;49.474;8.616;2022-08-19T04:24:19;22.70;99.90
7720;DHT22;3902;49.474;8.616;2022-08-19T04:26:45;22.70;99.90
7720;DHT22;3902;49.474;8.616;2022-08-19T04:29:15;22.70;99.90
7720;DHT22;3902;49.474;8.616;2022-08-19T04:31:43;22.70;99.90
7720;DHT22;3902;49.474;8.616;2022-08-19T04:34:12;22.70;99.90
7720;DHT22;3902;49.474;8.616;2022-08-19T04:36:40;22.70;99.90
7720;DHT22;3902;49.474;8.616;2022-08-19T04:39:10;22.70;99.90
7720;DHT22;3902;49.474;8.616;2022-08-19T04:41:37;22.70;99.90
7720;DHT22;3902;49.474;8.616;2022-08-19T04:44:21;22.60;99.90
7720;DHT22;3902;49.474;8.616;2022-08-19T04:46:49;22.60;99.90
7720;DHT22;3902;49.474;8.616;2022-08-19T04:49:16;22.60;99.90
7720;DHT22;3902;49.474;8.616;2022-08-19T04:51:44;22.60;99.90
7720;DHT22;3902;49.474;8.616;2022-08-19T04:54:10;22.60;99.90
7720;DHT22;3902;49.474;8.616;2022-08-19T04:56:36;22.50;99.90
7720;DHT22;3902;49.474;8.616;2022-08-19T04:59:03;22.60;99.90
7720;DHT22;3902;49.474;8.616;2022-08-19T05:01:30;22.60;99.90
7720;DHT22;3902;49.474;8.616;2022-08-19T05:03:57;22.60;99.90
7720;DHT22;3902;49.474;8.616;2022-08-19T05:06:23;22.60;99.90
7720;DHT22;3902;49.474;8.616;2022-08-19T05:08:50;22.60;99.90
7720;DHT22;3902;49.474;8.616;2022-08-19T05:11:21;22.60;99.90
7720;DHT22;3902;49.474;8.616;2022-08-19T05:13:48;22.60;99.90
7720;DHT22;3902;49.474;8.616;2022-08-19T05:16:15;22.60;99.90
7720;DHT22;3902;49.474;8.616;2022-08-19T05:18:41;22.60;99.90
7720;DHT22;3902;49.474;8.616;2022-08-19T05:21:27;22.60;99.90
7720;DHT22;3902;49.474;8.616;2022-08-19T05:24:28;22.60;99.90
7720;DHT22;3902;49.474;8.616;2022-08-19T05:26:55;22.70;99.90
7720;DHT22;3902;49.474;8.616;2022-08-19T05:29:26;22.60;99.90
7720;DHT22;3902;49.474;8.616;2022-08-19T05:31:52;22.70;99.90
7720;DHT22;3902;49.474;8.616;2022-08-19T05:34:20;22.70;99.90
7720;DHT22;3902;49.474;8.616;2022-08-19T05:36:55;22.70;99.90
7720;DHT22;3902;49.474;8.616;2022-08-19T05:39:24;22.70;99.90
7720;DHT22;3902;49.474;8.616;2022-08-19T05:41:57;22.70;99.90
7720;DHT22;3902;49.474;8.616;2022-08-19T05:44:25;22.70;99.90
7720;DHT22;3902;49.474;8.616;2022-08-19T05:46:51;22.70;99.90
7720;DHT22;3902;49.474;8.616;2022-08-19T05:49:23;22.70;99.90
7720;DHT22;3902;49.474;8.616;2022-08-19T05:51:51;22.80;99.90
7720;DHT22;3902;49.474;8.616;2022-08-19T05:54:17;22.80;99.90
7720;DHT22;3902;49.474;8.616;2022-08-19T05:56:43;22.80;99.90
7720;DHT22;3902;49.474;8.616;2022-08-19T05:59:10;22.80;99.90
7720;DHT22;3902;49.474;8.616;2022-08-19T06:01:41;22.80;99.90
7720;DHT22;3902;49.474;8.616;2022-08-19T06:04:07;22.80;99.90
7720;DHT22;3902;49.474;8.616;2022-08-19T06:06:34;22.80;99.90
7720;DHT22;3902;49.474;8.616;2022-08-19T06:09:04;22.90;99.90
7720;DHT22;3902;49.474;8.616;2022-08-19T06:11:41;22.90;99.90
7720;DHT22;3902;49.474;8.616;2022-08-19T06:14:10;22.90;99.90
7720;DHT22;3902;49.474;8.616;2022-08-19T06:16:38;22.90;99.90
7720;DHT22;3902;49.474;8.616;2022-08-19T06:19:06;22.90;99.90
7720;DHT22;3902;49.474;8.616;2022-08-19T06:21:34;22.90;99.90
7720;DHT22;3902;49.474;8.616;2022-08-19T06:24:03;22.80;99.90
7720;DHT22;3902;49.474;8.616;2022-08-19T06:26:30;22.90;99.90
7720;DHT22;3902;49.474;8.616;2022-08-19T06:28:55;22.90;99.90
7720;DHT22;3902;49.474;8.616;2022-08-19T06:31:24;22.90;99.90
7720;DHT22;3902;49.474;8.616;2022-08-19T06:33:50;22.90;99.90
7720;DHT22;3902;49.474;8.616;2022-08-19T06:36:27;22.90;99.90
7720;DHT22;3902;49.474;8.616;2022-08-19T06:38:57;23.00;99.90
7720;DHT22;3902;49.474;8.616;2022-08-19T06:41:24;23.00;99.90
7720;DHT22;3902;49.474;8.616;2022-08-19T06:43:50;23.00;99.90
7720;DHT22;3902;49.474;8.616;2022-08-19T06:46:16;23.10;99.90
7720;DHT22;3902;49.474;8.616;2022-08-19T06:48:43;23.10;99.90
7720;DHT22;3902;49.474;8.616;2022-08-19T06:51:09;23.10;99.90
7720;DHT22;3902;49.474;8.616;2022-08-19T06:53:35;23.10;99.90
7720;DHT22;3902;49.474;8.616;2022-08-19T06:56:00;23.20;99.90
7720;DHT22;3902;49.474;8.616;2022-08-19T06:58:29;23.20;99.90
7720;DHT22;3902;49.474;8.616;2022-08-19T07:00:58;23.20;99.90
7720;DHT22;3902;49.474;8.616;2022-08-19T07:03:30;23.30;99.90
7720;DHT22;3902;49.474;8.616;2022-08-19T07:05:57;23.30;99.90
7720;DHT22;3902;49.474;8.616;2022-08-19T07:08:24;23.30;99.90
7720;DHT22;3902;49.474;8.616;2022-08-19T07:10:52;23.30;99.90
7720;DHT22;3902;49.474;8.616;2022-08-19T07:13:17;23.30;99.90
7720;DHT22;3902;49.474;8.616;2022-08-19T07:15:44;23.30;99.90
7720;DHT22;3902;49.474;8.616;2022-08-19T07:18:11;23.40;99.90
7720;DHT22;3902;49.474;8.616;2022-08-19T07:20:37;23.40;99.90
7720;DHT22;3902;49.474;8.616;2022-08-19T07:23:04;23.50;99.90
7720;DHT22;3902;49.474;8.616;2022-08-19T07:25:30;23.50;99.90
7720;DHT22;3902;49.474;8.616;2022-08-19T07:27:55;23.60;99.90
7720;DHT22;3902;49.474;8.616;2022-08-19T07:30:21;23.60;99.90
7720;DHT22;3902;49.474;8.616;2022-08-19T07:32:48;23.60;99.90
7720;DHT22;3902;49.474;8.616;2022-08-19T07:35:15;23.60;99.90
7720;DHT22;3902;49.474;8.616;2022-08-19T07:37:44;23.60;99.90
7720;DHT22;3902;49.474;8.616;2022-08-19T07:40:11;23.70;99.90
7720;DHT22;3902;49.474;8.616;2022-08-19T07:42:37;23.70;99.90
7720;DHT22;3902;49.474;8.616;2022-08-19T07:45:04;23.80;99.90
7720;DHT22;3902;49.474;8.616;2022-08-19T07:47:30;23.80;99.90
7720;DHT22;3902;49.474;8.616;2022-08-19T07:49:56;23.80;99.90
7720;DHT22;3902;49.474;8.616;2022-08-19T07:52:22;23.90;99.90
7720;DHT22;3902;49.474;8.616;2022-08-19T07:54:48;23.70;99.90
7720;DHT22;3902;49.474;8.616;2022-08-19T07:57:15;23.70;99.90
7720;DHT22;3902;49.474;8.616;2022-08-19T07:59:40;23.80;99.90
7720;DHT22;3902;49.474;8.616;2022-08-19T08:02:06;23.90;99.90
7720;DHT22;3902;49.474;8.616;2022-08-19T08:04:32;23.90;99.90
7720;DHT22;3902;49.474;8.616;2022-08-19T08:07:17;24.00;99.90
7720;DHT22;3902;49.474;8.616;2022-08-19T08:10:03;24.00;99.90
7720;DHT22;3902;49.474;8.616;2022-08-19T08:12:37;24.00;99.90
7720;DHT22;3902;49.474;8.616;2022-08-19T08:15:09;24.00;99.90
7720;DHT22;3902;49.474;8.616;2022-08-19T08:17:35;24.00;99.90
7720;DHT22;3902;49.474;8.616;2022-08-19T08:20:05;24.00;99.90
7720;DHT22;3902;49.474;8.616;2022-08-19T08:22:34;24.00;99.90
7720;DHT22;3902;49.474;8.616;2022-08-19T08:25:21;24.00;99.90
7720;DHT22;3902;49.474;8.616;2022-08-19T08:27:48;24.10;99.90
7720;DHT22;3902;49.474;8.616;2022-08-19T08:30:18;24.10;99.90
7720;DHT22;3902;49.474;8.616;2022-08-19T08:32:44;24.20;99.90
7720;DHT22;3902;49.474;8.616;2022-08-19T08:35:13;24.30;99.90
7720;DHT22;3902;49.474;8.616;2022-08-19T08:37:39;24.30;99.90
7720;DHT22;3902;49.474;8.616;2022-08-19T08:40:10;24.30;99.90
7720;DHT22;3902;49.474;8.616;2022-08-19T08:42:49;24.40;99.90
7720;DHT22;3902;49.474;8.616;2022-08-19T08:45:17;24.40;99.90
7720;DHT22;3902;49.474;8.616;2022-08-19T08:47:47;24.50;99.90
7720;DHT22;3902;49.474;8.616;2022-08-19T08:50:19;24.60;99.90
7720;DHT22;3902;49.474;8.616;2022-08-19T08:52:48;24.70;99.90
7720;DHT22;3902;49.474;8.616;2022-08-19T08:55:19;24.90;99.90
7720;DHT22;3902;49.474;8.616;2022-08-19T09:02:52;25.10;99.90
7720;DHT22;3902;49.474;8.616;2022-08-19T09:05:19;25.10;99.90
7720;DHT22;3902;49.474;8.616;2022-08-19T09:08:00;25.20;99.90
7720;DHT22;3902;49.474;8.616;2022-08-19T09:10:39;25.20;99.90
7720;DHT22;3902;49.474;8.616;2022-08-19T09:15:51;25.40;99.90
7720;DHT22;3902;49.474;8.616;2022-08-19T09:18:18;25.50;99.90
7720;DHT22;3902;49.474;8.616;2022-08-19T09:20:44;25.50;99.90
7720;DHT22;3902;49.474;8.616;2022-08-19T09:23:10;25.70;99.90
7720;DHT22;3902;49.474;8.616;2022-08-19T09:25:36;25.70;99.90
7720;DHT22;3902;49.474;8.616;2022-08-19T09:28:02;25.80;99.90
7720;DHT22;3902;49.474;8.616;2022-08-19T09:30:31;25.80;99.90
7720;DHT22;3902;49.474;8.616;2022-08-19T09:32:57;25.90;99.90
7720;DHT22;3902;49.474;8.616;2022-08-19T09:35:26;26.00;99.90
7720;DHT22;3902;49.474;8.616;2022-08-19T09:37:53;26.10;99.90
7720;DHT22;3902;49.474;8.616;2022-08-19T09:40:19;26.10;99.90
7720;DHT22;3902;49.474;8.616;2022-08-19T09:42:46;26.30;99.90
7720;DHT22;3902;49.474;8.616;2022-08-19T09:45:16;26.30;99.90
7720;DHT22;3902;49.474;8.616;2022-08-19T09:47:42;26.40;99.90
7720;DHT22;3902;49.474;8.616;2022-08-19T09:50:10;26.50;99.90
7720;DHT22;3902;49.474;8.616;2022-08-19T09:52:37;26.60;99.90
7720;DHT22;3902;49.474;8.616;2022-08-19T09:55:04;26.60;99.90
7720;DHT22;3902;49.474;8.616;2022-08-19T09:57:30;26.70;99.90
7720;DHT22;3902;49.474;8.616;2022-08-19T09:59:56;26.80;99.90
7720;DHT22;3902;49.474;8.616;2022-08-19T10:02:21;26.90;99.90
7720;DHT22;3902;49.474;8.616;2022-08-19T10:04:47;27.00;99.90
7720;DHT22;3902;49.474;8.616;2022-08-19T10:07:36;27.10;99.90
7720;DHT22;3902;49.474;8.616;2022-08-19T10:10:04;27.10;99.90
7720;DHT22;3902;49.474;8.616;2022-08-19T10:12:30;27.20;99.90
7720;DHT22;3902;49.474;8.616;2022-08-19T10:14:56;27.00;99.90
7720;DHT22;3902;49.474;8.616;2022-08-19T10:17:21;27.00;99.90
7720;DHT22;3902;49.474;8.616;2022-08-19T10:19:47;27.00;99.90
7720;DHT22;3902;49.474;8.616;2022-08-19T10:22:13;27.10;99.90
7720;DHT22;3902;49.474;8.616;2022-08-19T10:24:40;27.20;99.90
7720;DHT22;3902;49.474;8.616;2022-08-19T10:27:06;27.30;99.90
7720;DHT22;3902;49.474;8.616;2022-08-19T10:29:32;27.40;99.90
7720;DHT22;3902;49.474;8.616;2022-08-19T10:32:00;27.40;99.90
7720;DHT22;3902;49.474;8.616;2022-08-19T10:34:28;27.50;99.90
7720;DHT22;3902;49.474;8.616;2022-08-19T10:36:54;27.70;99.90
7720;DHT22;3902;49.474;8.616;2022-08-19T10:39:20;27.80;99.90
7720;DHT22;3902;49.474;8.616;2022-08-19T10:41:46;27.90;99.90
7720;DHT22;3902;49.474;8.616;2022-08-19T10:44:14;28.00;99.90
7720;DHT22;3902;49.474;8.616;2022-08-19T10:46:42;28.00;99.90
7720;DHT22;3902;49.474;8.616;2022-08-19T10:49:10;28.00;99.90
7720;DHT22;3902;49.474;8.616;2022-08-19T10:51:37;28.20;99.80
7720;DHT22;3902;49.474;8.616;2022-08-19T10:54:22;28.30;99.90
7720;DHT22;3902;49.474;8.616;2022-08-19T10:56:47;28.50;99.90
7720;DHT22;3902;49.474;8.616;2022-08-19T10:59:28;28.50;99.90
7720;DHT22;3902;49.474;8.616;2022-08-19T11:01:59;28.50;99.90
7720;DHT22;3902;49.474;8.616;2022-08-19T11:04:25;28.60;99.90
7720;DHT22;3902;49.474;8.616;2022-08-19T11:06:50;28.60;99.90
7720;DHT22;3902;49.474;8.616;2022-08-19T11:09:20;28.50;99.90
7720;DHT22;3902;49.474;8.616;2022-08-19T11:11:46;28.40;99.90
7720;DHT22;3902;49.474;8.616;2022-08-19T11:14:15;28.30;99.60
7720;DHT22;3902;49.474;8.616;2022-08-19T11:16:43;28.20;99.80
7720;DHT22;3902;49.474;8.616;2022-08-19T11:19:10;28.40;99.70
7720;DHT22;3902;49.474;8.616;2022-08-19T11:21:42;28.60;99.50
7720;DHT22;3902;49.474;8.616;2022-08-19T11:24:15;28.70;99.20
7720;DHT22;3902;49.474;8.616;2022-08-19T11:26:42;28.90;98.80
7720;DHT22;3902;49.474;8.616;2022-08-19T11:29:09;29.20;98.10
7720;DHT22;3902;49.474;8.616;2022-08-19T11:31:40;29.70;98.70
7720;DHT22;3902;49.474;8.616;2022-08-19T11:34:08;30.40;97.90
7720;DHT22;3902;49.474;8.616;2022-08-19T11:36:38;31.00;96.30
7720;DHT22;3902;49.474;8.616;2022-08-19T11:39:06;31.40;93.90
7720;DHT22;3902;49.474;8.616;2022-08-19T11:41:32;32.00;92.90
7720;DHT22;3902;49.474;8.616;2022-08-19T11:43:57;32.30;91.60
7720;DHT22;3902;49.474;8.616;2022-08-19T11:46:25;32.50;90.70
7720;DHT22;3902;49.474;8.616;2022-08-19T11:48:51;32.70;90.40
7720;DHT22;3902;49.474;8.616;2022-08-19T11:51:21;32.40;89.50
7720;DHT22;3902;49.474;8.616;2022-08-19T11:53:48;32.10;88.90
7720;DHT22;3902;49.474;8.616;2022-08-19T11:56:15;32.10;88.30
7720;DHT22;3902;49.474;8.616;2022-08-19T11:58:41;32.10;88.20
7720;DHT22;3902;49.474;8.616;2022-08-19T12:01:11;32.40;89.10
7720;DHT22;3902;49.474;8.616;2022-08-19T12:03:38;32.60;89.70
7720;DHT22;3902;49.474;8.616;2022-08-19T12:06:05;32.80;88.50
7720;DHT22;3902;49.474;8.616;2022-08-19T12:08:31;32.50;88.30
7720;DHT22;3902;49.474;8.616;2022-08-19T12:10:57;32.60;88.50
7720;DHT22;3902;49.474;8.616;2022-08-19T12:13:22;32.30;87.10
7720;DHT22;3902;49.474;8.616;2022-08-19T12:15:48;32.10;88.30
7720;DHT22;3902;49.474;8.616;2022-08-19T12:18:13;31.70;87.60
7720;DHT22;3902;49.474;8.616;2022-08-19T12:20:41;31.90;88.60
7720;DHT22;3902;49.474;8.616;2022-08-19T12:23:08;32.00;86.10
7720;DHT22;3902;49.474;8.616;2022-08-19T12:25:35;32.30;86.90
7720;DHT22;3902;49.474;8.616;2022-08-19T12:28:01;32.10;86.60
7720;DHT22;3902;49.474;8.616;2022-08-19T12:30:27;32.40;87.70
7720;DHT22;3902;49.474;8.616;2022-08-19T12:32:52;32.20;86.20
7720;DHT22;3902;49.474;8.616;2022-08-19T12:35:18;32.10;86.00
7720;DHT22;3902;49.474;8.616;2022-08-19T12:37:46;31.90;86.60
7720;DHT22;3902;49.474;8.616;2022-08-19T12:40:14;31.60;84.70
7720;DHT22;3902;49.474;8.616;2022-08-19T12:42:40;31.60;85.80
7720;DHT22;3902;49.474;8.616;2022-08-19T12:45:12;31.30;85.50
7720;DHT22;3902;49.474;8.616;2022-08-19T12:47:38;31.10;86.70
7720;DHT22;3902;49.474;8.616;2022-08-19T12:50:05;31.10;86.80
7720;DHT22;3902;49.474;8.616;2022-08-19T12:52:36;31.50;86.00
7720;DHT22;3902;49.474;8.616;2022-08-19T12:55:08;31.90;84.70
7720;DHT22;3902;49.474;8.616;2022-08-19T12:57:34;32.30;83.40
7720;DHT22;3902;49.474;8.616;2022-08-19T13:00:11;32.50;83.30
7720;DHT22;3902;49.474;8.616;2022-08-19T13:02:39;32.70;82.70
7720;DHT22;3902;49.474;8.616;2022-08-19T13:05:08;32.70;81.40
7720;DHT22;3902;49.474;8.616;2022-08-19T13:07:34;32.30;81.50
7720;DHT22;3902;49.474;8.616;2022-08-19T13:10:00;32.40;82.20
7720;DHT22;3902;49.474;8.616;2022-08-19T13:12:26;32.30;81.30
7720;DHT22;3902;49.474;8.616;2022-08-19T13:14:53;32.30;81.50
7720;DHT22;3902;49.474;8.616;2022-08-19T13:17:20;32.00;81.40
7720;DHT22;3902;49.474;8.616;2022-08-19T13:19:45;31.90;80.80
7720;DHT22;3902;49.474;8.616;2022-08-19T13:22:11;31.80;81.10
7720;DHT22;3902;49.474;8.616;2022-08-19T13:24:37;31.60;79.10
7720;DHT22;3902;49.474;8.616;2022-08-19T13:27:04;31.70;82.70
7720;DHT22;3902;49.474;8.616;2022-08-19T13:29:30;31.90;83.60
7720;DHT22;3902;49.474;8.616;2022-08-19T13:32:14;32.30;82.60
7720;DHT22;3902;49.474;8.616;2022-08-19T13:34:58;32.70;82.30
7720;DHT22;3902;49.474;8.616;2022-08-19T13:37:24;32.90;80.20
7720;DHT22;3902;49.474;8.616;2022-08-19T13:40:11;32.70;78.80
7720;DHT22;3902;49.474;8.616;2022-08-19T13:42:38;32.90;79.60
7720;DHT22;3902;49.474;8.616;2022-08-19T13:45:04;33.00;78.60
7720;DHT22;3902;49.474;8.616;2022-08-19T13:47:32;33.10;77.20
7720;DHT22;3902;49.474;8.616;2022-08-19T13:50:02;33.20;76.00
7720;DHT22;3902;49.474;8.616;2022-08-19T13:52:28;33.50;75.90
7720;DHT22;3902;49.474;8.616;2022-08-19T13:54:54;33.70;74.70
7720;DHT22;3902;49.474;8.616;2022-08-19T13:57:19;33.70;73.10
7720;DHT22;3902;49.474;8.616;2022-08-19T13:59:45;33.70;73.50
7720;DHT22;3902;49.474;8.616;2022-08-19T14:02:11;33.70;72.90
7720;DHT22;3902;49.474;8.616;2022-08-19T14:04:37;33.70;71.10
7720;DHT22;3902;49.474;8.616;2022-08-19T14:07:03;33.80;73.20
7720;DHT22;3902;49.474;8.616;2022-08-19T14:09:30;33.80;71.10
7720;DHT22;3902;49.474;8.616;2022-08-19T14:11:55;33.80;72.00
7720;DHT22;3902;49.474;8.616;2022-08-19T14:14:21;33.90;71.00
7720;DHT22;3902;49.474;8.616;2022-08-19T14:16:47;34.00;73.00
7720;DHT22;3902;49.474;8.616;2022-08-19T14:19:13;34.00;71.10
7720;DHT22;3902;49.474;8.616;2022-08-19T14:21:38;33.90;67.80
7720;DHT22;3902;49.474;8.616;2022-08-19T14:24:06;33.80;67.50
7720;DHT22;3902;49.474;8.616;2022-08-19T14:26:32;33.80;67.10
7720;DHT22;3902;49.474;8.616;2022-08-19T14:28:57;33.90;66.80
7720;DHT22;3902;49.474;8.616;2022-08-19T14:31:23;33.80;67.90
7720;DHT22;3902;49.474;8.616;2022-08-19T14:33:49;33.80;66.60
7720;DHT22;3902;49.474;8.616;2022-08-19T14:36:17;33.80;67.40
7720;DHT22;3902;49.474;8.616;2022-08-19T14:38:43;33.70;69.50
7720;DHT22;3902;49.474;8.616;2022-08-19T14:41:17;33.80;69.70
7720;DHT22;3902;49.474;8.616;2022-08-19T14:43:46;33.70;66.70
7720;DHT22;3902;49.474;8.616;2022-08-19T14:46:18;33.40;64.40
7720;DHT22;3902;49.474;8.616;2022-08-19T14:48:46;33.40;64.70
7720;DHT22;3902;49.474;8.616;2022-08-19T14:51:11;33.40;65.30
7720;DHT22;3902;49.474;8.616;2022-08-19T14:53:37;33.40;66.40
7720;DHT22;3902;49.474;8.616;2022-08-19T14:56:24;33.50;69.00
7720;DHT22;3902;49.474;8.616;2022-08-19T14:58:50;33.40;68.70
7720;DHT22;3902;49.474;8.616;2022-08-19T15:01:21;33.40;69.20
7720;DHT22;3902;49.474;8.616;2022-08-19T15:03:47;33.40;70.10
7720;DHT22;3902;49.474;8.616;2022-08-19T15:06:13;33.30;69.10
7720;DHT22;3902;49.474;8.616;2022-08-19T15:08:41;33.10;67.30
7720;DHT22;3902;49.474;8.616;2022-08-19T15:11:12;32.90;67.00
7720;DHT22;3902;49.474;8.616;2022-08-19T15:13:39;32.70;67.70
7720;DHT22;3902;49.474;8.616;2022-08-19T15:16:05;32.50;69.30
7720;DHT22;3902;49.474;8.616;2022-08-19T15:18:31;32.50;70.50
7720;DHT22;3902;49.474;8.616;2022-08-19T15:20:58;32.40;69.40
7720;DHT22;3902;49.474;8.616;2022-08-19T15:23:26;32.30;69.00
7720;DHT22;3902;49.474;8.616;2022-08-19T15:25:51;32.20;69.30
7720;DHT22;3902;49.474;8.616;2022-08-19T15:28:21;32.20;68.40
7720;DHT22;3902;49.474;8.616;2022-08-19T15:30:47;32.10;69.40
7720;DHT22;3902;49.474;8.616;2022-08-19T15:33:12;31.90;69.80
7720;DHT22;3902;49.474;8.616;2022-08-19T15:35:40;31.90;68.70
7720;DHT22;3902;49.474;8.616;2022-08-19T15:38:07;31.80;69.50
7720;DHT22;3902;49.474;8.616;2022-08-19T15:40:33;31.60;68.70
7720;DHT22;3902;49.474;8.616;2022-08-19T15:42:59;31.60;69.20
7720;DHT22;3902;49.474;8.616;2022-08-19T15:45:25;31.50;70.00
7720;DHT22;3902;49.474;8.616;2022-08-19T15:48:00;31.50;71.50
7720;DHT22;3902;49.474;8.616;2022-08-19T15:50:27;31.40;68.60
7720;DHT22;3902;49.474;8.616;2022-08-19T15:52:55;31.20;68.40
7720;DHT22;3902;49.474;8.616;2022-08-19T15:55:27;31.00;68.40
7720;DHT22;3902;49.474;8.616;2022-08-19T15:57:53;31.00;69.30
7720;DHT22;3902;49.474;8.616;2022-08-19T16:00:37;30.90;69.50
7720;DHT22;3902;49.474;8.616;2022-08-19T16:03:21;30.80;69.20
7720;DHT22;3902;49.474;8.616;2022-08-19T16:06:06;30.80;70.80
7720;DHT22;3902;49.474;8.616;2022-08-19T16:09:04;30.70;70.10
7720;DHT22;3902;49.474;8.616;2022-08-19T16:11:32;30.70;71.20
7720;DHT22;3902;49.474;8.616;2022-08-19T16:13:59;30.70;70.10
7720;DHT22;3902;49.474;8.616;2022-08-19T16:16:30;30.60;71.10